Time;durP1;ratioP1;P1;durP2;ratioP2;P2;SDS_P1;SDS_P2;PMS_P1;PMS_P2;Temp;Humidity;BMP_temperature;BMP_pressure;BME280_temperature;BME280_humidity;BME280_pressure;Samples;Min_cycle;Max_cycle;Signal;HPM_P1;HPM_P2
2023/09/08 00:01:25;;;;;;;10.70;9.23;;;21.30;99.90;;;;;;5068270;28;20029;-74
2023/09/08 00:03:51;;;;;;;11.18;9.65;;;21.30;99.90;;;;;;5081889;28;20020;-74
2023/09/08 00:06:16;;;;;;;12.98;8.95;;;21.30;99.90;;;;;;5082614;28;20407;-74
2023/09/08 00:08:43;;;;;;;14.27;9.80;;;21.30;99.90;;;;;;5065917;28;20056;-74
2023/09/08 00:11:09;;;;;;;10.65;9.55;;;21.30;99.90;;;;;;5073169;28;20029;-74
2023/09/08 00:13:34;;;;;;;11.98;10.65;;;21.30;99.90;;;;;;5081308;28;20016;-74
2023/09/08 00:16:00;;;;;;;12.93;10.25;;;21.30;99.90;;;;;;5067475;28;20027;-74
2023/09/08 00:18:25;;;;;;;11.43;9.50;;;21.30;99.90;;;;;;5076226;28;20465;-74
2023/09/08 00:20:51;;;;;;;10.63;9.32;;;21.30;99.90;;;;;;5073035;28;20372;-74
2023/09/08 00:23:17;;;;;;;12.30;9.57;;;21.20;99.90;;;;;;5071379;28;20127;-73
2023/09/08 00:25:42;;;;;;;12.48;9.27;;;21.30;99.90;;;;;;5075368;28;20499;-74
2023/09/08 00:28:08;;;;;;;12.32;10.80;;;21.20;99.90;;;;;;5072856;28;20029;-73
2023/09/08 00:30:34;;;;;;;17.75;11.25;;;21.20;99.90;;;;;;5072942;28;20024;-73
2023/09/08 00:33:00;;;;;;;11.38;10.18;;;21.20;99.90;;;;;;5070336;28;20060;-74
2023/09/08 00:35:25;;;;;;;10.73;9.27;;;21.20;99.90;;;;;;5070605;28;20019;-73
2023/09/08 00:37:51;;;;;;;9.82;8.85;;;21.20;99.90;;;;;;5073203;28;20425;-74
2023/09/08 00:40:17;;;;;;;12.57;10.07;;;21.20;99.90;;;;;;5067394;28;20452;-73
2023/09/08 00:42:43;;;;;;;11.63;10.30;;;21.20;99.90;;;;;;5077571;28;20112;-73
2023/09/08 00:45:09;;;;;;;14.65;10.90;;;21.20;99.90;;;;;;5072059;28;20031;-74
2023/09/08 00:47:35;;;;;;;12.30;10.93;;;21.10;99.90;;;;;;5067165;28;20085;-73
2023/09/08 00:50:03;;;;;;;16.17;11.38;;;21.00;99.90;;;;;;5072111;28;20423;-73
2023/09/08 00:52:32;;;;;;;12.02;10.82;;;21.00;99.90;;;;;;5076461;28;20028;-73
2023/09/08 00:54:59;;;;;;;13.18;10.45;;;21.00;99.90;;;;;;5073070;28;20099;-73
2023/09/08 00:57:24;;;;;;;11.77;9.88;;;20.90;99.90;;;;;;5082829;28;20020;-73
2023/09/08 00:59:50;;;;;;;12.77;10.70;;;20.90;99.90;;;;;;5079062;28;20026;-73
2023/09/08 01:02:16;;;;;;;12.07;9.40;;;20.90;99.90;;;;;;5072097;28;20515;-73
2023/09/08 01:04:43;;;;;;;13.43;9.68;;;20.90;99.90;;;;;;5080295;28;20020;-73
2023/09/08 01:07:09;;;;;;;15.20;10.57;;;20.80;99.90;;;;;;5075539;28;20036;-73
2023/09/08 01:09:36;;;;;;;12.13;10.82;;;20.80;99.90;;;;;;5070753;28;20094;-73
2023/09/08 01:12:05;;;;;;;11.73;10.52;;;20.80;99.90;;;;;;5067044;28;20040;-73
2023/09/08 01:14:31;;;;;;;11.88;10.65;;;20.80;99.90;;;;;;5079071;28;20020;-73
2023/09/08 01:16:56;;;;;;;12.15;10.35;;;20.80;99.90;;;;;;5075447;28;20502;-73
2023/09/08 01:19:22;;;;;;;11.55;9.32;;;20.80;99.90;;;;;;5077412;28;20025;-73
2023/09/08 01:22:07;;;;;;;13.63;10.50;;;20.80;99.90;;;;;;5074050;28;20065;-72
2023/09/08 01:24:32;;;;;;;13.48;10.20;;;20.80;99.90;;;;;;5068746;28;20555;-73
2023/09/08 01:26:58;;;;;;;12.15;10.98;;;20.80;99.90;;;;;;5068961;28;20029;-73
2023/09/08 01:29:26;;;;;;;12.07;10.90;;;20.70;99.90;;;;;;5069324;28;20533;-73
2023/09/08 01:31:52;;;;;;;11.20;9.95;;;20.70;99.90;;;;;;5079131;28;20032;-73
2023/09/08 01:34:18;;;;;;;11.95;10.38;;;20.70;99.90;;;;;;5066801;28;20020;-73
2023/09/08 01:36:45;;;;;;;13.95;11.05;;;20.60;99.90;;;;;;5077359;28;20032;-73
2023/09/08 01:39:11;;;;;;;12.02;10.82;;;20.60;99.90;;;;;;5078574;28;20067;-72
2023/09/08 01:41:37;;;;;;;13.07;11.77;;;20.60;99.90;;;;;;5074237;28;20064;-73
2023/09/08 01:44:07;;;;;;;15.95;12.13;;;20.60;99.90;;;;;;5081487;28;20462;-73
2023/09/08 01:46:34;;;;;;;13.45;11.50;;;20.60;99.90;;;;;;5073659;28;20021;-73
2023/09/08 01:49:00;;;;;;;12.10;10.20;;;20.50;99.90;;;;;;5073548;28;20029;-73
2023/09/08 01:51:25;;;;;;;15.05;11.70;;;20.50;99.90;;;;;;5076054;28;20499;-72
2023/09/08 01:53:51;;;;;;;13.70;11.50;;;20.50;99.90;;;;;;5063719;28;20024;-72
2023/09/08 01:56:17;;;;;;;17.65;12.50;;;20.50;99.90;;;;;;5069223;28;20020;-73
2023/09/08 01:58:42;;;;;;;14.23;12.57;;;20.50;99.90;;;;;;5080576;28;20368;-72
2023/09/08 02:01:08;;;;;;;14.57;12.50;;;20.40;99.90;;;;;;5072092;28;20473;-72
2023/09/08 02:03:33;;;;;;;14.68;12.50;;;20.40;99.90;;;;;;5068361;28;20029;-72
2023/09/08 02:06:00;;;;;;;13.25;11.93;;;20.40;99.90;;;;;;5073310;28;20029;-73
2023/09/08 02:08:25;;;;;;;15.40;12.35;;;20.40;99.90;;;;;;5072948;28;20056;-72
2023/09/08 02:10:51;;;;;;;13.30;11.82;;;20.40;99.90;;;;;;5069217;28;20477;-73
2023/09/08 02:13:17;;;;;;;17.70;12.05;;;20.40;99.90;;;;;;5074179;28;20384;-73
2023/09/08 02:15:42;;;;;;;14.27;12.82;;;20.40;99.90;;;;;;5066604;28;20496;-72
2023/09/08 02:18:08;;;;;;;21.20;13.98;;;20.30;99.90;;;;;;5076691;28;20021;-73
2023/09/08 02:20:34;;;;;;;16.58;14.88;;;20.30;99.90;;;;;;5072313;28;20539;-72
2023/09/08 02:23:06;;;;;;;15.85;14.43;;;20.20;99.90;;;;;;5065848;28;20036;-73
2023/09/08 02:25:32;;;;;;;14.57;13.18;;;20.20;99.90;;;;;;5077125;28;20099;-72
2023/09/08 02:27:57;;;;;;;13.57;12.18;;;20.20;99.90;;;;;;5075891;28;20603;-72
2023/09/08 02:30:23;;;;;;;20.20;14.55;;;20.20;99.90;;;;;;5076304;28;20024;-72
2023/09/08 02:32:49;;;;;;;14.90;12.77;;;20.20;99.90;;;;;;5081355;28;20032;-72
2023/09/08 02:35:15;;;;;;;14.32;12.80;;;20.10;99.90;;;;;;5065317;28;20033;-72
2023/09/08 02:37:40;;;;;;;15.70;12.93;;;20.10;99.90;;;;;;5073601;28;20480;-73
2023/09/08 02:40:07;;;;;;;13.80;12.10;;;20.10;99.90;;;;;;5076465;28;20032;-72
2023/09/08 02:42:33;;;;;;;13.98;12.55;;;20.10;99.90;;;;;;5084507;28;20040;-72
2023/09/08 02:44:58;;;;;;;13.68;12.25;;;20.10;99.90;;;;;;5077852;28;20056;-72
2023/09/08 02:47:24;;;;;;;12.30;11.13;;;20.00;99.90;;;;;;5077653;28;20040;-72
2023/09/08 02:49:50;;;;;;;12.93;11.65;;;20.00;99.90;;;;;;5081866;28;20028;-72
2023/09/08 02:52:15;;;;;;;14.48;12.98;;;20.00;99.90;;;;;;5081643;28;20433;-72
2023/09/08 02:54:41;;;;;;;15.75;13.43;;;20.00;99.90;;;;;;5072558;28;20024;-73
2023/09/08 02:57:07;;;;;;;14.05;12.57;;;19.90;99.90;;;;;;5072263;28;20500;-72
2023/09/08 02:59:32;;;;;;;14.55;13.07;;;19.90;99.90;;;;;;5073777;28;20534;-72
2023/09/08 03:01:59;;;;;;;19.48;12.23;;;19.90;99.90;;;;;;5076670;28;20032;-72
2023/09/08 03:04:25;;;;;;;15.75;13.02;;;19.80;99.90;;;;;;5077860;28;20030;-73
2023/09/08 03:06:51;;;;;;;18.42;14.45;;;19.80;99.90;;;;;;5074135;28;20099;-72
2023/09/08 03:09:16;;;;;;;15.73;14.10;;;19.80;99.90;;;;;;5073950;28;20040;-72
2023/09/08 03:11:42;;;;;;;17.58;12.43;;;19.80;99.90;;;;;;5074231;28;20028;-72
2023/09/08 03:14:08;;;;;;;17.70;13.60;;;19.70;99.90;;;;;;5071824;28;20508;-73
2023/09/08 03:16:33;;;;;;;18.40;14.25;;;19.70;99.90;;;;;;5074619;28;20012;-72
2023/09/08 03:18:59;;;;;;;21.27;14.98;;;19.60;99.90;;;;;;5080189;28;20099;-73
2023/09/08 03:21:25;;;;;;;18.40;14.60;;;19.60;99.90;;;;;;5070273;28;20020;-72
2023/09/08 03:23:51;;;;;;;17.27;15.57;;;19.70;99.90;;;;;;5078108;28;20469;-72
2023/09/08 03:26:16;;;;;;;16.27;14.63;;;19.70;99.90;;;;;;5071538;28;20477;-72
2023/09/08 03:28:42;;;;;;;16.55;14.43;;;19.60;99.90;;;;;;5078406;28;20483;-72
2023/09/08 03:31:08;;;;;;;19.27;13.50;;;19.60;99.90;;;;;;5082263;28;20052;-72
2023/09/08 03:33:34;;;;;;;17.33;13.15;;;19.60;99.90;;;;;;5073343;28;20053;-73
2023/09/08 03:36:01;;;;;;;14.77;13.00;;;19.60;99.90;;;;;;5075467;28;20043;-73
2023/09/08 03:38:27;;;;;;;15.70;13.00;;;19.60;99.90;;;;;;5085809;28;20024;-73
2023/09/08 03:40:52;;;;;;;15.30;11.82;;;19.50;99.90;;;;;;5074946;28;20035;-72
2023/09/08 03:43:18;;;;;;;15.60;13.98;;;19.50;99.90;;;;;;5074756;28;20020;-72
2023/09/08 03:45:44;;;;;;;17.05;13.68;;;19.50;99.90;;;;;;5084010;28;20060;-72
2023/09/08 03:48:10;;;;;;;16.63;13.88;;;19.50;99.90;;;;;;5070724;28;20476;-72
2023/09/08 03:50:36;;;;;;;20.77;14.80;;;19.50;99.90;;;;;;5078875;28;20124;-72
2023/09/08 03:53:01;;;;;;;18.15;14.20;;;19.50;99.90;;;;;;5076776;28;20105;-73
2023/09/08 03:55:27;;;;;;;17.52;15.77;;;19.50;99.90;;;;;;5070197;28;20017;-72
2023/09/08 03:57:53;;;;;;;16.92;14.25;;;19.50;99.90;;;;;;5082751;28;20469;-72
2023/09/08 04:00:21;;;;;;;16.40;14.55;;;19.40;99.90;;;;;;5077376;28;20036;-72
2023/09/08 04:02:51;;;;;;;14.90;13.27;;;19.40;99.90;;;;;;5072963;28;20027;-72
2023/09/08 04:05:17;;;;;;;17.98;13.63;;;19.40;99.90;;;;;;5079504;28;20407;-72
2023/09/08 04:07:46;;;;;;;18.23;14.80;;;19.40;99.90;;;;;;5077319;28;20032;-72
2023/09/08 04:10:12;;;;;;;19.30;14.30;;;19.30;99.90;;;;;;5072974;28;20027;-72
2023/09/08 04:12:39;;;;;;;16.30;14.60;;;19.30;99.90;;;;;;5078792;28;20028;-72
2023/09/08 04:15:06;;;;;;;17.98;13.43;;;19.30;99.90;;;;;;5073554;28;20138;-72
2023/09/08 04:17:31;;;;;;;15.27;12.77;;;19.30;99.90;;;;;;5067373;28;20024;-72
2023/09/08 04:19:57;;;;;;;15.02;13.43;;;19.30;99.90;;;;;;5068274;28;20381;-72
2023/09/08 04:22:23;;;;;;;21.42;16.20;;;19.30;99.90;;;;;;5077477;28;20585;-72
2023/09/08 04:24:48;;;;;;;16.77;15.07;;;19.20;99.90;;;;;;5077299;28;20085;-72
2023/09/08 04:27:14;;;;;;;17.70;14.77;;;19.30;99.90;;;;;;5064829;28;20779;-72
2023/09/08 04:29:40;;;;;;;16.42;14.50;;;19.20;99.90;;;;;;5071597;28;20037;-72
2023/09/08 04:32:08;;;;;;;15.32;13.82;;;19.20;99.90;;;;;;5078853;28;20032;-72
2023/09/08 04:34:39;;;;;;;16.90;14.25;;;19.20;99.90;;;;;;5074553;28;20028;-72
2023/09/08 04:37:05;;;;;;;15.38;13.80;;;19.20;99.90;;;;;;5068679;28;20071;-72
2023/09/08 04:39:31;;;;;;;16.52;12.93;;;19.20;99.90;;;;;;5069523;28;20465;-72
2023/09/08 04:41:57;;;;;;;13.13;11.77;;;19.20;99.90;;;;;;5075947;28;20025;-72
2023/09/08 04:44:22;;;;;;;15.95;12.93;;;19.20;99.90;;;;;;5071201;28;20024;-72
2023/09/08 04:46:48;;;;;;;15.18;13.35;;;19.20;99.90;;;;;;5071486;28;20039;-72
2023/09/08 04:49:14;;;;;;;17.55;13.80;;;19.20;99.90;;;;;;5078490;28;20016;-72
2023/09/08 04:51:39;;;;;;;18.90;14.13;;;19.20;99.90;;;;;;5066413;28;20034;-72
2023/09/08 04:54:05;;;;;;;15.93;14.30;;;19.10;99.90;;;;;;5080078;28;20069;-73
2023/09/08 04:56:31;;;;;;;17.95;14.60;;;19.10;99.90;;;;;;5064465;28;20016;-73
2023/09/08 04:58:57;;;;;;;16.63;13.90;;;19.10;99.90;;;;;;5078222;28;20517;-72
2023/09/08 05:01:23;;;;;;;15.68;12.95;;;19.10;99.90;;;;;;5068333;28;20024;-72
2023/09/08 05:03:49;;;;;;;18.00;13.77;;;19.10;99.90;;;;;;5075452;28;20047;-71
2023/09/08 05:06:15;;;;;;;15.40;13.65;;;19.00;99.90;;;;;;5083695;28;20066;-73
2023/09/08 05:08:40;;;;;;;17.65;14.68;;;19.00;99.90;;;;;;5073185;28;20078;-73
2023/09/08 05:11:06;;;;;;;16.95;14.43;;;19.00;99.90;;;;;;5069348;28;20025;-72
2023/09/08 05:13:32;;;;;;;19.02;14.90;;;19.00;99.90;;;;;;5068908;28;20100;-72
2023/09/08 05:15:59;;;;;;;18.90;16.17;;;19.00;99.90;;;;;;5076488;28;20477;-72
2023/09/08 05:18:27;;;;;;;19.67;14.80;;;19.00;99.90;;;;;;5074388;28;20477;-72
2023/09/08 05:20:53;;;;;;;17.67;15.52;;;19.00;99.90;;;;;;5070992;28;20393;-73
2023/09/08 05:23:18;;;;;;;19.38;16.67;;;19.00;99.90;;;;;;5076350;28;20024;-72
2023/09/08 05:25:45;;;;;;;18.95;16.95;;;19.00;99.90;;;;;;5068416;28;20035;-74
2023/09/08 05:28:11;;;;;;;19.88;16.45;;;19.00;99.90;;;;;;5076955;28;20036;-73
2023/09/08 05:30:36;;;;;;;16.95;15.30;;;19.00;99.90;;;;;;5072616;28;20330;-73
2023/09/08 05:33:02;;;;;;;16.90;15.13;;;19.00;99.90;;;;;;5071947;28;20496;-73
2023/09/08 05:35:27;;;;;;;19.15;14.90;;;19.00;99.90;;;;;;5075331;28;20039;-72
2023/09/08 05:37:53;;;;;;;14.77;13.27;;;19.00;99.90;;;;;;5069783;28;20035;-72
2023/09/08 05:40:21;;;;;;;14.82;13.25;;;19.00;99.90;;;;;;5076417;28;20477;-72
2023/09/08 05:42:46;;;;;;;15.40;13.27;;;19.00;99.90;;;;;;5070363;28;20592;-72
2023/09/08 05:45:12;;;;;;;19.80;13.23;;;18.90;99.90;;;;;;5075599;28;20020;-72
2023/09/08 05:47:38;;;;;;;18.00;12.93;;;18.90;99.90;;;;;;5079185;28;20476;-72
2023/09/08 05:50:04;;;;;;;14.57;12.20;;;18.90;99.90;;;;;;5070937;28;20041;-72
2023/09/08 05:52:30;;;;;;;18.83;12.68;;;19.00;99.90;;;;;;5069269;28;20115;-73
2023/09/08 05:54:55;;;;;;;14.48;13.07;;;19.00;99.90;;;;;;5077388;28;20028;-72
2023/09/08 05:57:21;;;;;;;14.68;12.75;;;18.90;99.90;;;;;;5065425;28;20137;-73
2023/09/08 05:59:46;;;;;;;14.55;12.63;;;18.90;99.90;;;;;;5077476;28;20020;-73
2023/09/08 06:02:12;;;;;;;13.90;12.55;;;18.90;99.90;;;;;;5074312;28;20431;-73
2023/09/08 06:04:38;;;;;;;16.67;13.90;;;18.80;99.90;;;;;;5075649;28;20512;-73
2023/09/08 06:07:03;;;;;;;17.83;13.35;;;18.80;99.90;;;;;;5079392;28;20028;-72
2023/09/08 06:09:29;;;;;;;15.43;13.75;;;18.80;99.90;;;;;;5071100;28;20411;-73
2023/09/08 06:11:55;;;;;;;18.38;14.80;;;18.80;99.90;;;;;;5085072;28;20040;-72
2023/09/08 06:14:20;;;;;;;16.25;13.70;;;18.90;99.90;;;;;;5071593;28;20488;-73
2023/09/08 06:16:46;;;;;;;15.55;13.32;;;18.90;99.90;;;;;;5075168;28;20075;-73
2023/09/08 06:19:12;;;;;;;15.27;13.73;;;19.00;99.90;;;;;;5084962;28;20100;-73
2023/09/08 06:21:38;;;;;;;18.63;14.32;;;19.00;99.90;;;;;;5073754;28;20028;-73
2023/09/08 06:24:04;;;;;;;17.85;14.07;;;18.90;99.90;;;;;;5080350;28;20021;-73
2023/09/08 06:26:30;;;;;;;17.75;13.52;;;19.00;99.90;;;;;;5070939;28;20033;-73
2023/09/08 06:28:55;;;;;;;16.33;14.43;;;19.10;99.90;;;;;;5069300;28;20031;-73
2023/09/08 06:31:21;;;;;;;19.27;13.73;;;19.10;99.90;;;;;;5075067;28;20044;-73
2023/09/08 06:33:47;;;;;;;15.48;12.52;;;19.10;99.90;;;;;;5070593;28;20037;-73
2023/09/08 06:36:13;;;;;;;16.65;12.68;;;19.10;99.90;;;;;;5075239;28;20032;-72
2023/09/08 06:38:39;;;;;;;17.02;12.20;;;19.10;99.90;;;;;;5073101;28;20346;-73
2023/09/08 06:41:11;;;;;;;15.15;12.98;;;19.10;99.90;;;;;;5082061;28;20024;-72
2023/09/08 06:43:37;;;;;;;;;;;19.10;99.90;;;;;;5080370;28;20455;-73
2023/09/08 06:46:03;;;;;;;20.85;14.65;;;19.10;99.90;;;;;;5080724;28;20001;-73
2023/09/08 06:48:29;;;;;;;17.83;14.73;;;19.10;99.90;;;;;;5072820;28;20393;-73
2023/09/08 06:50:56;;;;;;;20.65;14.82;;;19.20;99.90;;;;;;5080163;28;20021;-72
2023/09/08 06:53:22;;;;;;;18.17;14.98;;;19.20;99.90;;;;;;5077212;28;20024;-73
2023/09/08 06:55:48;;;;;;;17.77;14.07;;;19.20;99.90;;;;;;5078133;28;20024;-73
2023/09/08 06:58:16;;;;;;;15.77;12.27;;;19.20;99.90;;;;;;5077048;28;20074;-73
2023/09/08 07:00:43;;;;;;;24.15;15.40;;;19.20;99.90;;;;;;5073434;28;20052;-73
2023/09/08 07:03:08;;;;;;;15.93;13.25;;;19.30;99.90;;;;;;5071294;28;20121;-72
2023/09/08 07:05:35;;;;;;;16.13;12.30;;;19.30;99.90;;;;;;5076224;28;21792;-73
2023/09/08 07:08:01;;;;;;;15.38;12.77;;;19.40;99.90;;;;;;5075097;28;20032;-74
2023/09/08 07:10:26;;;;;;;19.30;12.50;;;19.40;99.90;;;;;;5078250;28;20037;-72
2023/09/08 07:12:52;;;;;;;26.75;15.65;;;19.40;99.90;;;;;;5074890;28;20052;-72
2023/09/08 07:15:18;;;;;;;17.75;14.45;;;19.50;99.90;;;;;;5074970;28;20068;-72
2023/09/08 07:17:43;;;;;;;26.60;16.50;;;19.50;99.90;;;;;;5073435;28;20027;-72
2023/09/08 07:20:10;;;;;;;14.50;12.88;;;19.50;99.90;;;;;;5069253;28;20025;-72
2023/09/08 07:22:36;;;;;;;18.42;15.05;;;19.50;99.90;;;;;;5071016;28;20036;-74
2023/09/08 07:25:01;;;;;;;20.48;13.85;;;19.60;99.90;;;;;;5074455;28;20396;-73
2023/09/08 07:27:27;;;;;;;24.45;15.65;;;19.60;99.90;;;;;;5076101;28;20077;-73
2023/09/08 07:29:53;;;;;;;22.45;16.63;;;19.60;99.90;;;;;;5079525;28;20065;-75
2023/09/08 07:32:19;;;;;;;27.00;16.13;;;19.80;99.90;;;;;;5074558;28;20039;-74
2023/09/08 07:34:44;;;;;;;21.58;14.82;;;19.80;99.90;;;;;;5082115;28;20491;-74
2023/09/08 07:37:10;;;;;;;20.45;13.55;;;20.00;99.90;;;;;;5070991;28;20093;-73
2023/09/08 07:39:36;;;;;;;22.90;17.10;;;20.00;99.90;;;;;;5081135;28;20474;-75
2023/09/08 07:42:02;;;;;;;23.25;14.75;;;20.10;99.90;;;;;;5067007;28;20033;-75
2023/09/08 07:44:28;;;;;;;27.45;17.05;;;20.20;99.90;;;;;;5080951;28;20012;-75
2023/09/08 07:46:56;;;;;;;25.67;13.98;;;20.30;99.90;;;;;;5076378;28;20385;-74
2023/09/08 07:49:23;;;;;;;32.03;13.68;;;20.50;99.90;;;;;;5071983;28;20121;-76
2023/09/08 07:51:49;;;;;;;20.95;13.75;;;20.50;99.90;;;;;;5059963;28;20033;-75
2023/09/08 07:54:15;;;;;;;23.45;16.60;;;20.60;99.90;;;;;;5075982;28;20363;-75
2023/09/08 07:56:40;;;;;;;21.08;16.48;;;20.70;99.90;;;;;;5073841;28;20060;-73
2023/09/08 07:59:07;;;;;;;20.75;15.30;;;20.80;99.90;;;;;;5074272;28;20503;-73
2023/09/08 08:01:32;;;;;;;19.45;14.70;;;20.90;99.90;;;;;;5073597;28;20024;-74
2023/09/08 08:03:58;;;;;;;19.88;15.65;;;21.00;99.90;;;;;;5063480;28;20090;-75
2023/09/08 08:06:24;;;;;;;19.00;13.65;;;21.30;99.90;;;;;;5074948;28;20101;-75
2023/09/08 08:08:49;;;;;;;16.85;13.65;;;21.40;99.90;;;;;;5075644;28;20120;-74
2023/09/08 08:11:20;;;;;;;19.95;12.98;;;21.50;99.90;;;;;;5069994;28;20472;-76
2023/09/08 08:13:46;;;;;;;16.85;11.57;;;21.60;99.90;;;;;;5072228;28;20100;-73
2023/09/08 08:16:12;;;;;;;17.85;14.20;;;21.70;99.90;;;;;;5073894;28;20048;-76
2023/09/08 08:18:38;;;;;;;13.63;12.23;;;21.80;99.90;;;;;;5074585;28;20060;-76
2023/09/08 08:21:03;;;;;;;15.55;13.18;;;22.00;99.90;;;;;;5073142;28;20025;-75
2023/09/08 08:23:30;;;;;;;18.77;14.10;;;22.10;99.90;;;;;;5065912;28;20444;-76
2023/09/08 08:25:57;;;;;;;18.70;13.00;;;22.20;99.90;;;;;;5078163;28;20104;-74
2023/09/08 08:28:24;;;;;;;18.38;15.35;;;22.30;99.90;;;;;;5069766;28;20115;-73
2023/09/08 08:30:50;;;;;;;20.10;14.90;;;22.40;99.90;;;;;;5059939;28;20024;-76
2023/09/08 08:33:16;;;;;;;18.15;14.02;;;22.60;99.90;;;;;;5054854;28;20033;-76
2023/09/08 08:35:48;;;;;;;15.25;13.35;;;22.70;99.90;;;;;;5066556;28;20027;-75
2023/09/08 08:38:13;;;;;;;14.25;12.75;;;22.90;99.90;;;;;;5069589;28;20030;-74
2023/09/08 08:40:39;;;;;;;18.80;13.95;;;23.00;99.90;;;;;;5073731;28;20037;-74
2023/09/08 08:43:05;;;;;;;16.90;13.52;;;23.10;99.90;;;;;;5061092;28;20959;-75
2023/09/08 08:45:32;;;;;;;17.00;12.13;;;23.20;99.90;;;;;;5073145;28;20025;-75
2023/09/08 08:47:58;;;;;;;15.57;10.88;;;23.30;99.90;;;;;;5067218;28;20068;-74
2023/09/08 08:50:24;;;;;;;15.13;11.55;;;23.30;99.90;;;;;;5075932;28;20134;-75
2023/09/08 08:52:51;;;;;;;13.18;11.65;;;23.40;99.90;;;;;;5072658;28;20713;-76
2023/09/08 08:55:17;;;;;;;15.93;11.90;;;23.60;99.90;;;;;;5072378;28;20091;-76
2023/09/08 08:57:43;;;;;;;12.10;10.77;;;23.70;99.90;;;;;;5072293;28;20028;-74
2023/09/08 09:00:11;;;;;;;12.27;10.90;;;23.70;99.90;;;;;;5073558;28;20049;-75
2023/09/08 09:02:42;;;;;;;15.32;10.48;;;23.90;99.90;;;;;;5076399;28;20059;-75
2023/09/08 09:05:10;;;;;;;14.45;12.05;;;23.90;99.90;;;;;;5072042;28;20532;-74
2023/09/08 09:07:37;;;;;;;13.30;10.57;;;24.10;99.90;;;;;;5062689;28;20029;-75
2023/09/08 09:10:04;;;;;;;11.80;10.60;;;24.20;99.90;;;;;;5075995;28;20037;-75
2023/09/08 09:12:30;;;;;;;13.13;10.85;;;24.30;99.90;;;;;;5082415;28;20032;-75
2023/09/08 09:14:59;;;;;;;13.25;11.00;;;24.40;99.90;;;;;;5068899;28;20428;-75
2023/09/08 09:17:25;;;;;;;11.00;9.82;;;24.60;99.90;;;;;;5075779;28;20016;-74
2023/09/08 09:20:11;;;;;;;11.98;10.65;;;24.60;99.90;;;;;;5070527;28;20035;-74
2023/09/08 09:22:37;;;;;;;14.20;11.25;;;24.70;99.90;;;;;;5079336;28;20025;-74
2023/09/08 09:25:07;;;;;;;11.02;9.85;;;24.80;99.90;;;;;;5068722;28;20465;-73
2023/09/08 09:27:37;;;;;;;11.02;9.65;;;24.90;99.90;;;;;;5078737;28;20034;-75
2023/09/08 09:30:03;;;;;;;10.52;9.63;;;25.20;99.90;;;;;;5071072;28;20072;-74
2023/09/08 09:32:30;;;;;;;12.05;9.73;;;25.30;99.90;;;;;;5070921;28;20064;-74
2023/09/08 09:34:57;;;;;;;13.27;11.00;;;25.40;99.90;;;;;;5070182;28;20079;-74
2023/09/08 09:37:23;;;;;;;12.98;10.13;;;25.60;99.90;;;;;;5071814;28;20039;-74
2023/09/08 09:39:50;;;;;;;11.30;10.23;;;25.80;99.90;;;;;;5074161;28;20098;-74
2023/09/08 09:42:16;;;;;;;12.32;10.63;;;25.80;99.90;;;;;;5070439;28;20078;-74
2023/09/08 09:44:42;;;;;;;11.45;9.90;;;25.90;99.90;;;;;;5071274;28;20029;-78
2023/09/08 09:47:09;;;;;;;14.43;10.90;;;26.10;99.90;;;;;;5073758;28;20094;-75
2023/09/08 09:49:45;;;;;;;12.32;10.13;;;26.10;99.90;;;;;;5072264;28;20013;-74
2023/09/08 09:52:20;;;;;;;14.20;10.75;;;26.30;99.90;;;;;;5079771;28;20071;-78
2023/09/08 09:54:47;;;;;;;11.60;9.73;;;26.30;99.90;;;;;;5065489;28;20025;-76
2023/09/08 09:57:14;;;;;;;10.65;9.57;;;26.40;99.90;;;;;;5071807;28;20432;-76
2023/09/08 09:59:43;;;;;;;10.68;9.73;;;26.60;99.90;;;;;;5072733;28;20112;-75
2023/09/08 10:02:13;;;;;;;15.90;11.82;;;26.70;99.90;;;;;;5068693;28;20107;-76
2023/09/08 10:04:40;;;;;;;15.85;11.10;;;26.90;99.90;;;;;;5062420;28;20028;-76
2023/09/08 10:07:07;;;;;;;12.60;11.30;;;27.00;99.90;;;;;;5071947;28;20020;-78
2023/09/08 10:09:32;;;;;;;13.65;11.20;;;27.10;99.90;;;;;;5074539;28;20025;-77
2023/09/08 10:12:06;;;;;;;11.50;10.35;;;27.20;99.90;;;;;;5071445;28;20380;-75
2023/09/08 10:14:41;;;;;;;12.75;11.00;;;27.30;99.90;;;;;;5073217;28;20036;-75
2023/09/08 10:17:16;;;;;;;13.80;10.50;;;27.40;99.90;;;;;;5072420;28;20478;-75
2023/09/08 10:19:44;;;;;;;11.30;10.20;;;27.70;99.90;;;;;;5065350;28;20025;-76
2023/09/08 10:22:15;;;;;;;13.48;11.18;;;27.80;99.90;;;;;;5068670;28;20023;-73
2023/09/08 10:24:44;;;;;;;15.77;10.85;;;27.90;99.90;;;;;;5070647;28;20024;-74
2023/09/08 10:27:11;;;;;;;14.48;12.63;;;28.00;99.90;;;;;;5070260;28;20016;-75
2023/09/08 10:29:38;;;;;;;12.88;10.77;;;27.90;99.90;;;;;;5067662;28;20033;-76
2023/09/08 10:32:06;;;;;;;11.90;8.65;;;28.10;99.90;;;;;;5070622;28;20039;-75
2023/09/08 10:34:34;;;;;;;10.65;9.65;;;28.20;99.90;;;;;;5076184;28;20577;-76
2023/09/08 10:37:00;;;;;;;11.27;9.88;;;28.20;99.90;;;;;;5052077;28;20481;-76
2023/09/08 10:39:35;;;;;;;12.82;8.90;;;28.30;99.90;;;;;;5072499;28;20021;-75
2023/09/08 10:42:19;;;;;;;10.55;9.48;;;28.40;99.90;;;;;;5072997;28;20568;-76
2023/09/08 10:44:47;;;;;;;11.68;10.55;;;28.50;99.90;;;;;;5070616;28;20040;-76
2023/09/08 10:47:14;;;;;;;11.05;10.05;;;28.60;99.90;;;;;;5067248;28;20078;-74
2023/09/08 10:49:40;;;;;;;11.60;10.50;;;28.70;99.90;;;;;;5076319;28;20024;-75
2023/09/08 10:52:11;;;;;;;13.95;10.00;;;28.70;99.90;;;;;;5069807;28;20043;-75
2023/09/08 10:54:45;;;;;;;10.50;9.50;;;28.90;99.90;;;;;;5075486;28;20028;-75
2023/09/08 10:57:15;;;;;;;17.17;8.20;;;29.10;99.90;;;;;;5076677;28;20013;-76
2023/09/08 10:59:59;;;;;;;10.38;9.18;;;29.10;99.90;;;;;;5073828;28;20028;-75
2023/09/08 11:02:37;;;;;;;10.20;8.95;;;29.20;99.90;;;;;;5071251;28;20119;-75
2023/09/08 11:05:04;;;;;;;10.02;9.18;;;29.40;99.90;;;;;;5073955;28;20048;-74
2023/09/08 11:07:32;;;;;;;17.50;9.40;;;29.40;99.90;;;;;;5071632;28;20078;-75
2023/09/08 11:09:59;;;;;;;8.82;7.93;;;29.50;99.90;;;;;;5078414;28;20072;-76
2023/09/08 11:12:27;;;;;;;10.02;8.85;;;29.60;99.90;;;;;;5081117;28;20034;-78
2023/09/08 11:14:53;;;;;;;10.00;8.75;;;29.60;99.90;;;;;;5075922;28;20013;-76
2023/09/08 11:17:18;;;;;;;10.38;7.63;;;29.60;99.90;;;;;;5071058;28;20409;-74
2023/09/08 11:19:49;;;;;;;10.88;9.40;;;29.70;99.90;;;;;;5074754;28;20374;-75
2023/09/08 11:22:16;;;;;;;12.07;8.35;;;29.80;99.90;;;;;;5066883;28;20021;-76
2023/09/08 11:24:42;;;;;;;10.57;8.73;;;29.70;99.90;;;;;;5077829;28;20016;-75
2023/09/08 11:27:08;;;;;;;13.30;8.65;;;29.90;99.90;;;;;;5073931;28;20039;-75
2023/09/08 11:29:34;;;;;;;10.80;8.98;;;29.70;99.90;;;;;;5072009;28;20013;-76
2023/09/08 11:32:01;;;;;;;13.95;8.63;;;29.80;99.90;;;;;;5074620;28;20480;-76
2023/09/08 11:34:28;;;;;;;9.73;8.52;;;30.00;99.90;;;;;;5072883;28;20091;-76
2023/09/08 11:36:54;;;;;;;10.18;7.57;;;30.10;99.90;;;;;;5073360;28;20028;-76
2023/09/08 11:39:24;;;;;;;9.18;7.95;;;30.20;99.90;;;;;;5070313;28;20479;-76
2023/09/08 11:41:50;;;;;;;11.05;8.68;;;30.20;99.90;;;;;;5076216;28;20031;-75
2023/09/08 11:44:18;;;;;;;11.48;7.82;;;30.20;99.90;;;;;;5069491;28;20373;-76
2023/09/08 11:46:44;;;;;;;9.65;7.85;;;30.40;99.90;;;;;;5074400;28;20020;-76
2023/09/08 11:49:09;;;;;;;9.38;7.43;;;30.40;99.90;;;;;;5072588;28;20036;-77
2023/09/08 11:51:36;;;;;;;8.07;7.28;;;30.40;99.90;;;;;;5068918;28;20028;-75
2023/09/08 11:54:02;;;;;;;11.30;7.57;;;30.50;99.90;;;;;;5073744;28;20039;-76
2023/09/08 11:56:28;;;;;;;9.95;7.78;;;30.60;99.90;;;;;;5077111;28;20017;-77
2023/09/08 11:58:56;;;;;;;9.30;8.48;;;30.40;99.90;;;;;;5071807;28;20355;-76
2023/09/08 12:01:22;;;;;;;11.23;7.88;;;30.40;99.90;;;;;;5074046;28;20012;-76
2023/09/08 12:03:55;;;;;;;10.73;7.35;;;30.50;99.90;;;;;;5073462;28;20081;-77
2023/09/08 12:06:25;;;;;;;8.65;6.97;;;30.60;99.90;;;;;;5079263;28;20060;-78
2023/09/08 12:08:51;;;;;;;8.00;7.25;;;30.50;99.90;;;;;;5079996;28;20040;-76
2023/09/08 12:11:17;;;;;;;9.60;7.32;;;30.50;99.90;;;;;;5060914;28;20493;-77
2023/09/08 12:13:42;;;;;;;8.77;7.68;;;30.50;99.90;;;;;;5079902;28;20028;-77
2023/09/08 12:16:22;;;;;;;8.68;7.88;;;30.60;99.90;;;;;;5078843;28;20465;-77
2023/09/08 12:18:50;;;;;;;8.13;7.43;;;30.60;99.90;;;;;;5070670;28;20068;-77
2023/09/08 12:21:16;;;;;;;11.35;7.70;;;30.60;99.90;;;;;;5076849;28;20013;-78
2023/09/08 12:23:52;;;;;;;9.65;7.82;;;30.60;99.90;;;;;;5072845;28;20093;-78
2023/09/08 12:26:19;;;;;;;11.93;7.40;;;30.70;99.90;;;;;;5072957;28;20024;-78
2023/09/08 12:28:45;;;;;;;8.55;6.43;;;30.80;99.90;;;;;;5073945;28;20024;-77